createdAt,value
2022-10-20T00:00:33.615Z,45.00
2022-10-20T00:03:07.479Z,45.10
2022-10-20T00:05:41.857Z,45.30
2022-10-20T00:08:17.289Z,45.60
2022-10-20T00:10:58.032Z,45.70
2022-10-20T00:13:32.186Z,46.40
2022-10-20T00:16:06.835Z,45.90
2022-10-20T00:18:41.010Z,46.00
2022-10-20T00:21:16.759Z,46.10
2022-10-20T00:23:52.260Z,46.20
2022-10-20T00:26:28.052Z,46.20
2022-10-20T00:29:03.738Z,46.40
2022-10-20T00:31:37.613Z,46.50
2022-10-20T00:34:11.658Z,46.60
2022-10-20T00:36:50.332Z,46.80
2022-10-20T00:39:26.723Z,46.90
2022-10-20T00:42:04.087Z,47.00
2022-10-20T00:44:56.378Z,47.20
2022-10-20T00:47:38.367Z,47.10
2022-10-20T00:50:15.362Z,47.50
2022-10-20T00:52:49.964Z,47.50
2022-10-20T00:55:28.807Z,47.60
2022-10-20T00:58:03.649Z,47.70
2022-10-20T01:00:40.410Z,47.60
2022-10-20T01:03:19.047Z,47.80
2022-10-20T01:05:52.991Z,47.90
2022-10-20T01:08:26.962Z,47.90
2022-10-20T01:11:14.773Z,48.00
2022-10-20T01:14:00.201Z,48.00
2022-10-20T01:16:45.846Z,48.20
2022-10-20T01:19:52.743Z,48.40
2022-10-20T01:22:55.214Z,48.30
2022-10-20T01:25:45.674Z,48.30
2022-10-20T01:28:24.422Z,48.50
2022-10-20T01:31:01.308Z,48.80
2022-10-20T01:33:42.973Z,49.00
2022-10-20T01:36:23.909Z,48.90
2022-10-20T01:39:03.549Z,49.00
2022-10-20T01:41:43.489Z,48.90
2022-10-20T01:44:21.085Z,49.10
2022-10-20T01:46:56.819Z,49.20
2022-10-20T01:49:30.827Z,49.30
2022-10-20T01:52:05.485Z,49.30
2022-10-20T01:54:39.669Z,49.20
2022-10-20T01:57:32.840Z,49.30
2022-10-20T02:00:10.542Z,49.20
2022-10-20T02:03:12.371Z,49.60
2022-10-20T02:05:59.830Z,49.50
2022-10-20T02:08:43.529Z,49.80
2022-10-20T02:11:24.191Z,49.80
2022-10-20T02:13:59.833Z,49.90
2022-10-20T02:16:39.733Z,50.00
2022-10-20T02:19:15.569Z,50.10
2022-10-20T02:21:50.088Z,50.10
2022-10-20T02:24:28.256Z,50.10
2022-10-20T02:27:05.794Z,50.10
2022-10-20T02:29:44.708Z,50.10
2022-10-20T02:32:20.583Z,50.20
2022-10-20T02:34:54.471Z,50.30
2022-10-20T02:37:28.335Z,50.40
2022-10-20T02:40:02.218Z,50.40
2022-10-20T02:42:36.060Z,50.30
2022-10-20T02:45:11.318Z,50.40
2022-10-20T02:47:46.806Z,50.30
2022-10-20T02:50:20.710Z,50.50
2022-10-20T02:52:54.749Z,50.60
2022-10-20T02:55:28.642Z,50.70
2022-10-20T02:58:02.511Z,50.60
2022-10-20T03:00:36.396Z,50.60
2022-10-20T03:03:11.732Z,50.80
2022-10-20T03:05:46.135Z,50.90
2022-10-20T03:08:20.041Z,50.80
2022-10-20T03:10:53.952Z,50.80
2022-10-20T03:16:02.208Z,50.80
2022-10-20T03:18:37.518Z,50.90
2022-10-20T03:21:11.462Z,51.00
2022-10-20T03:23:45.380Z,50.90
2022-10-20T03:26:19.454Z,51.00
2022-10-20T03:28:53.331Z,51.10
2022-10-20T03:31:27.223Z,50.90
2022-10-20T03:34:02.541Z,50.90
2022-10-20T03:36:36.427Z,51.10
2022-10-20T03:39:10.322Z,51.10
2022-10-20T03:41:44.209Z,51.20
2022-10-20T03:44:18.158Z,51.10
2022-10-20T03:46:52.197Z,51.20
2022-10-20T03:49:27.546Z,51.20
2022-10-20T03:52:01.546Z,51.20
2022-10-20T03:54:37.312Z,51.30
2022-10-20T03:57:11.201Z,51.30
2022-10-20T03:59:45.148Z,51.30
2022-10-20T04:02:29.562Z,51.10
2022-10-20T04:05:05.881Z,51.30
2022-10-20T04:07:39.728Z,51.40
2022-10-20T04:10:14.912Z,51.30
2022-10-20T04:12:48.823Z,51.30
2022-10-20T04:15:22.674Z,51.30
2022-10-20T04:17:56.679Z,51.50
2022-10-20T04:20:31.976Z,51.30
2022-10-20T04:23:05.885Z,51.60
2022-10-20T04:25:45.616Z,51.60
2022-10-20T04:28:21.093Z,51.60
2022-10-20T04:30:54.969Z,51.50
2022-10-20T04:33:28.845Z,51.60
2022-10-20T04:36:05.574Z,51.60
2022-10-20T04:38:39.483Z,51.70
2022-10-20T04:41:13.407Z,51.70
2022-10-20T04:43:52.200Z,52.20
2022-10-20T04:46:26.791Z,51.70
2022-10-20T04:49:00.667Z,51.60
2022-10-20T04:51:36.021Z,51.60
2022-10-20T04:54:09.873Z,51.70
2022-10-20T04:56:43.771Z,51.50
2022-10-20T04:59:17.659Z,51.70
2022-10-20T05:01:51.662Z,51.80
2022-10-20T05:04:25.693Z,51.70
2022-10-20T05:07:01.006Z,51.70
2022-10-20T05:09:35.113Z,51.80
2022-10-20T05:12:09.708Z,51.80
2022-10-20T05:14:43.828Z,51.90
2022-10-20T05:17:17.752Z,51.80
2022-10-20T05:19:51.869Z,51.80
2022-10-20T05:22:27.283Z,52.00
2022-10-20T05:25:24.394Z,52.00
2022-10-20T05:27:55.023Z,52.10
2022-10-20T05:30:28.942Z,52.00
2022-10-20T05:33:02.906Z,51.90
2022-10-20T05:35:36.763Z,51.90
2022-10-20T05:38:12.096Z,52.00
2022-10-20T05:40:46.243Z,51.90
2022-10-20T05:43:20.125Z,51.80
2022-10-20T05:45:55.970Z,51.70
2022-10-20T05:48:30.081Z,52.10
2022-10-20T05:51:13.893Z,51.80
2022-10-20T05:53:50.650Z,51.80
2022-10-20T05:56:25.727Z,51.80
2022-10-20T05:58:59.994Z,52.10
2022-10-20T06:01:47.981Z,52.10
2022-10-20T06:04:24.790Z,52.10
2022-10-20T06:06:59.332Z,52.30
2022-10-20T06:09:34.877Z,52.30
2022-10-20T06:14:47.867Z,52.30
2022-10-20T06:17:22.139Z,52.40
2022-10-20T06:19:56.012Z,52.40
2022-10-20T06:22:29.981Z,52.40
2022-10-20T06:25:06.656Z,52.30
2022-10-20T06:27:42.494Z,52.40
2022-10-20T06:30:16.473Z,52.40
2022-10-20T06:32:55.114Z,52.40
2022-10-20T06:35:28.979Z,52.50
2022-10-20T06:38:02.946Z,52.60
2022-10-20T06:40:38.358Z,52.70
2022-10-20T06:43:12.188Z,52.80
2022-10-20T06:45:45.853Z,52.90
2022-10-20T06:48:19.782Z,53.10
2022-10-20T06:50:58.365Z,53.10
2022-10-20T06:53:35.101Z,53.20
2022-10-20T06:56:13.404Z,53.30
2022-10-20T06:58:48.983Z,53.40
2022-10-20T07:01:24.586Z,53.50
2022-10-20T07:04:01.044Z,53.60
2022-10-20T07:06:36.577Z,53.70
2022-10-20T07:09:15.149Z,53.80
2022-10-20T07:11:54.419Z,54.00
2022-10-20T07:14:31.601Z,54.10
2022-10-20T07:17:06.497Z,54.30
2022-10-20T07:19:40.433Z,54.40
2022-10-20T07:22:14.298Z,54.20
2022-10-20T07:24:48.242Z,48.20
2022-10-20T07:27:23.649Z,40.60
2022-10-20T07:29:57.635Z,41.00
2022-10-20T07:32:32.522Z,40.40
2022-10-20T07:35:07.288Z,40.80
2022-10-20T07:37:41.230Z,40.20
2022-10-20T07:40:14.963Z,40.40
2022-10-20T07:42:50.378Z,42.00
2022-10-20T07:45:24.261Z,41.50
2022-10-20T07:47:59.454Z,41.60
2022-10-20T07:50:33.305Z,41.80
2022-10-20T07:53:07.393Z,42.00
2022-10-20T07:55:41.316Z,41.80
2022-10-20T07:58:16.625Z,42.20
2022-10-20T08:00:50.507Z,41.90
2022-10-20T08:03:24.595Z,42.10
2022-10-20T08:05:59.204Z,42.50
2022-10-20T08:08:33.338Z,42.80
2022-10-20T08:11:10.360Z,43.20
2022-10-20T08:13:46.015Z,43.20
2022-10-20T08:17:05.020Z,43.30
2022-10-20T08:19:35.672Z,43.20
2022-10-20T08:22:08.920Z,42.70
2022-10-20T08:24:42.096Z,43.50
2022-10-20T08:27:15.090Z,43.20
2022-10-20T08:29:59.897Z,43.10
2022-10-20T08:32:39.514Z,43.20
2022-10-20T08:35:12.678Z,43.20
2022-10-20T08:37:45.689Z,43.10
2022-10-20T08:40:22.337Z,42.80
2022-10-20T08:42:55.721Z,42.60
2022-10-20T08:45:32.671Z,42.40
2022-10-20T08:48:13.532Z,42.50
2022-10-20T08:50:48.810Z,42.50
2022-10-20T08:53:24.471Z,42.70
2022-10-20T08:55:59.009Z,42.90
2022-10-20T08:58:33.165Z,42.80
2022-10-20T09:01:19.766Z,42.50
2022-10-20T09:03:58.344Z,42.20
2022-10-20T09:06:32.594Z,42.40
2022-10-20T09:09:06.536Z,42.50
2022-10-20T09:11:41.438Z,42.40
2022-10-20T09:14:16.854Z,42.40
2022-10-20T09:17:00.878Z,42.40
2022-10-20T09:19:56.870Z,42.30
2022-10-20T09:22:35.816Z,42.30
2022-10-20T09:25:16.759Z,42.40
2022-10-20T09:27:51.186Z,42.40
2022-10-20T09:30:33.471Z,42.40
2022-10-20T09:33:23.380Z,42.30
2022-10-20T09:36:05.165Z,42.40
2022-10-20T09:38:43.387Z,42.70
2022-10-20T09:41:21.386Z,42.90
2022-10-20T09:43:58.367Z,43.30
2022-10-20T09:46:38.889Z,43.30
2022-10-20T09:49:26.219Z,44.20
2022-10-20T09:52:02.218Z,43.80
2022-10-20T09:54:36.095Z,43.80
2022-10-20T09:57:17.657Z,43.70
2022-10-20T09:59:54.330Z,43.60
2022-10-20T10:02:33.811Z,43.60
2022-10-20T10:05:21.301Z,43.80
2022-10-20T10:08:00.345Z,43.80
2022-10-20T10:10:34.726Z,43.80
2022-10-20T10:13:25.142Z,43.80
2022-10-20T10:16:05.375Z,43.50
2022-10-20T10:18:41.321Z,43.60
2022-10-20T10:21:18.512Z,43.70
2022-10-20T10:23:55.080Z,43.60
2022-10-20T10:26:53.906Z,43.70
2022-10-20T10:29:28.856Z,43.70
2022-10-20T10:32:04.518Z,43.60
2022-10-20T10:35:02.010Z,43.50
2022-10-20T10:37:39.236Z,43.20
2022-10-20T10:40:18.718Z,43.20
2022-10-20T10:43:30.069Z,43.10
2022-10-20T10:46:07.913Z,43.20
2022-10-20T10:48:59.765Z,43.00
2022-10-20T10:51:46.415Z,43.10
2022-10-20T10:54:37.210Z,42.60
2022-10-20T10:57:17.524Z,42.70
2022-10-20T10:59:54.257Z,42.70
2022-10-20T11:02:48.851Z,42.70
2022-10-20T11:05:30.587Z,42.70
2022-10-20T11:08:16.210Z,42.90
2022-10-20T11:11:00.136Z,43.10
2022-10-20T11:13:42.929Z,43.10
2022-10-20T11:16:25.814Z,43.10
2022-10-20T11:19:32.304Z,43.20
2022-10-20T11:22:19.199Z,43.20
2022-10-20T11:25:04.093Z,43.10
2022-10-20T11:27:40.416Z,43.40
2022-10-20T11:30:19.392Z,43.30
2022-10-20T11:32:59.576Z,43.20
2022-10-20T11:35:39.935Z,43.30
2022-10-20T11:38:20.055Z,43.40
2022-10-20T11:41:00.916Z,43.60
2022-10-20T11:43:48.130Z,43.80
2022-10-20T11:46:28.185Z,44.10
2022-10-20T11:49:04.117Z,44.30
2022-10-20T11:52:01.667Z,44.20
2022-10-20T11:55:07.085Z,44.20
2022-10-20T11:58:01.274Z,43.90
2022-10-20T12:00:59.706Z,43.80
2022-10-20T12:04:06.562Z,43.90
2022-10-20T12:07:19.748Z,44.20
2022-10-20T12:10:15.224Z,44.80
2022-10-20T12:12:58.747Z,45.50
2022-10-20T12:15:32.920Z,45.70
2022-10-20T12:18:23.972Z,45.60
2022-10-20T12:21:01.693Z,46.00
2022-10-20T12:24:05.790Z,45.20
2022-10-20T12:27:05.351Z,44.50
2022-10-20T12:30:30.805Z,43.80
2022-10-20T12:33:17.737Z,43.00
2022-10-20T12:36:13.799Z,43.10
2022-10-20T12:38:50.972Z,40.60
2022-10-20T12:41:30.186Z,34.30
2022-10-20T12:44:06.517Z,31.10
2022-10-20T12:46:46.094Z,31.60
2022-10-20T12:49:28.587Z,33.40
2022-10-20T12:52:04.203Z,34.40
2022-10-20T12:54:43.838Z,36.00
2022-10-20T12:57:31.952Z,36.50
2022-10-20T13:00:07.879Z,37.80
2022-10-20T13:02:47.198Z,37.80
2022-10-20T13:05:52.930Z,38.10
2022-10-20T13:08:29.912Z,39.20
2022-10-20T13:11:42.697Z,38.60
2022-10-20T13:14:47.438Z,39.90
2022-10-20T13:17:26.651Z,39.70
2022-10-20T13:20:04.496Z,39.80
2022-10-20T13:22:47.873Z,40.10
2022-10-20T13:25:35.957Z,40.50
2022-10-20T13:28:20.196Z,40.60
2022-10-20T13:31:11.370Z,41.10
2022-10-20T13:34:03.762Z,41.20
2022-10-20T13:36:54.639Z,41.60
2022-10-20T13:39:48.687Z,42.40
2022-10-20T13:42:39.223Z,42.70
2022-10-20T13:45:25.645Z,42.90
2022-10-20T13:48:12.753Z,43.60
2022-10-20T13:50:51.109Z,42.90
2022-10-20T13:53:27.960Z,42.80
2022-10-20T13:56:06.837Z,42.50
2022-10-20T13:58:40.986Z,42.40
2022-10-20T14:01:23.396Z,42.30
2022-10-20T14:03:57.657Z,42.20
2022-10-20T14:06:34.040Z,42.20
2022-10-20T14:09:16.093Z,42.30
2022-10-20T14:11:54.456Z,42.50
2022-10-20T14:14:30.516Z,42.50
2022-10-20T14:17:07.052Z,42.60
2022-10-20T14:19:42.325Z,42.60
2022-10-20T14:22:23.266Z,42.70
2022-10-20T14:25:00.208Z,42.60
2022-10-20T14:27:38.440Z,42.60
2022-10-20T14:30:17.312Z,42.90
2022-10-20T14:32:52.642Z,43.50
2022-10-20T14:35:32.638Z,43.60
2022-10-20T14:38:15.257Z,43.70
2022-10-20T14:40:54.321Z,43.90
2022-10-20T14:43:40.379Z,44.20
2022-10-20T14:46:24.973Z,44.90
2022-10-20T14:49:01.288Z,44.50
2022-10-20T14:51:39.907Z,44.60
2022-10-20T14:54:37.170Z,45.50
2022-10-20T14:57:40.035Z,46.40
2022-10-20T15:00:31.426Z,46.40
2022-10-20T15:03:08.321Z,45.60
2022-10-20T15:05:45.272Z,45.20
2022-10-20T15:08:26.308Z,44.80
2022-10-20T15:11:00.366Z,44.50
2022-10-20T15:13:35.315Z,44.00
2022-10-20T15:16:35.862Z,43.60
2022-10-20T15:19:27.702Z,43.50
2022-10-20T15:22:09.434Z,43.10
2022-10-20T15:24:43.360Z,42.90
2022-10-20T15:27:19.352Z,37.70
2022-10-20T15:29:53.667Z,33.40
2022-10-20T15:32:28.881Z,35.10
2022-10-20T15:35:02.698Z,36.40
2022-10-20T15:37:36.275Z,37.00
2022-10-20T15:40:11.104Z,39.30
2022-10-20T15:42:45.056Z,37.80
2022-10-20T15:45:21.827Z,38.00
2022-10-20T15:47:57.085Z,38.20
2022-10-20T15:50:30.987Z,38.40
2022-10-20T15:53:04.848Z,38.90
2022-10-20T15:55:42.203Z,39.40
2022-10-20T15:58:16.072Z,39.80
2022-10-20T16:00:49.979Z,40.20
2022-10-20T16:03:25.611Z,40.40
2022-10-20T16:05:59.455Z,40.20
2022-10-20T16:08:33.364Z,40.50
2022-10-20T16:11:07.614Z,40.60
2022-10-20T16:13:41.615Z,40.50
2022-10-20T16:16:17.250Z,40.50
2022-10-20T16:18:52.466Z,40.80
2022-10-20T16:21:26.290Z,40.80
2022-10-20T16:24:01.166Z,40.90
2022-10-20T16:26:35.106Z,41.40
2022-10-20T16:29:08.888Z,41.10
2022-10-20T16:31:42.416Z,41.10
2022-10-20T16:34:17.685Z,41.30
2022-10-20T16:36:51.582Z,41.20
2022-10-20T16:39:25.520Z,41.20
2022-10-20T16:41:59.375Z,40.90
2022-10-20T16:44:33.560Z,40.70
2022-10-20T16:47:07.389Z,40.60
2022-10-20T16:49:42.373Z,40.70
2022-10-20T16:52:16.177Z,40.80
2022-10-20T16:54:49.767Z,40.50
2022-10-20T16:57:23.633Z,40.40
2022-10-20T16:59:57.494Z,40.30
2022-10-20T17:02:31.382Z,40.30
2022-10-20T17:05:09.411Z,40.30
2022-10-20T17:07:43.575Z,40.00
2022-10-20T17:10:17.103Z,39.90
2022-10-20T17:15:30.062Z,39.80
2022-10-20T17:18:03.911Z,39.60
2022-10-20T17:20:40.406Z,39.60
2022-10-20T17:23:14.215Z,39.70
2022-10-20T17:25:47.777Z,40.00
2022-10-20T17:28:21.903Z,40.10
2022-10-20T17:30:57.490Z,40.00
2022-10-20T17:33:32.758Z,39.90
2022-10-20T17:36:09.205Z,39.90
2022-10-20T17:38:43.699Z,39.80
2022-10-20T17:41:17.722Z,40.00
2022-10-20T17:43:51.920Z,40.10
2022-10-20T17:46:25.867Z,40.10
2022-10-20T17:49:01.633Z,40.10
2022-10-20T17:51:37.038Z,40.10
2022-10-20T17:54:11.208Z,40.10
2022-10-20T17:56:45.182Z,40.10
2022-10-20T17:59:19.592Z,40.10
2022-10-20T18:01:53.748Z,40.00
2022-10-20T18:04:27.897Z,40.00
2022-10-20T18:07:03.442Z,39.90
2022-10-20T18:09:37.687Z,39.90
2022-10-20T18:12:12.173Z,40.10
2022-10-20T18:14:46.382Z,40.30
2022-10-20T18:17:20.303Z,40.90
2022-10-20T18:19:57.711Z,41.40
2022-10-20T18:22:33.105Z,41.40
2022-10-20T18:25:08.777Z,41.50
2022-10-20T18:27:42.699Z,41.60
2022-10-20T18:30:16.813Z,41.70
2022-10-20T18:32:50.943Z,41.80
2022-10-20T18:35:25.369Z,42.60
2022-10-20T18:38:00.707Z,42.80
2022-10-20T18:40:34.917Z,42.80
2022-10-20T18:43:11.274Z,42.50
2022-10-20T18:45:52.581Z,42.50
2022-10-20T18:48:26.435Z,43.00
2022-10-20T18:51:02.152Z,43.20
2022-10-20T18:56:20.320Z,44.00
2022-10-20T18:58:55.879Z,43.70
2022-10-20T19:01:31.657Z,44.00
2022-10-20T19:04:06.576Z,43.80
2022-10-20T19:06:42.357Z,44.00
2022-10-20T19:09:19.888Z,43.80
2022-10-20T19:11:55.764Z,43.80
2022-10-20T19:14:29.865Z,43.70
2022-10-20T19:17:03.871Z,43.50
2022-10-20T19:19:38.047Z,43.40
2022-10-20T19:22:12.114Z,43.40
2022-10-20T19:24:47.783Z,43.70
2022-10-20T19:27:26.702Z,43.60
2022-10-20T19:30:02.274Z,43.80
2022-10-20T19:32:40.373Z,43.90
2022-10-20T19:35:17.833Z,43.80
2022-10-20T19:37:51.972Z,43.80
2022-10-20T19:40:28.501Z,43.90
2022-10-20T19:43:02.679Z,44.30
2022-10-20T19:45:37.164Z,44.20
2022-10-20T19:48:11.336Z,44.30
2022-10-20T19:50:45.445Z,44.30
2022-10-20T19:53:19.377Z,44.30
2022-10-20T19:55:55.257Z,44.30
2022-10-20T19:58:29.253Z,44.30
2022-10-20T20:01:03.509Z,44.20
2022-10-20T20:03:37.875Z,44.20
2022-10-20T20:06:16.376Z,44.20
2022-10-20T20:08:52.851Z,44.10
2022-10-20T20:11:30.989Z,44.10
2022-10-20T20:14:07.117Z,44.00
2022-10-20T20:16:41.687Z,44.10
2022-10-20T20:19:16.666Z,44.20
2022-10-20T20:21:50.627Z,44.10
2022-10-20T20:24:24.707Z,44.00
2022-10-20T20:27:00.155Z,43.90
2022-10-20T20:29:34.708Z,43.80
2022-10-20T20:32:08.588Z,43.80
2022-10-20T20:34:42.521Z,43.90
2022-10-20T20:37:16.403Z,44.00
2022-10-20T20:39:50.445Z,43.90
2022-10-20T20:42:25.963Z,43.80
2022-10-20T20:44:59.849Z,43.80
2022-10-20T20:47:34.835Z,43.80
2022-10-20T20:50:11.312Z,43.70
2022-10-20T20:52:45.844Z,43.70
2022-10-20T20:55:19.726Z,43.60
2022-10-20T20:57:55.030Z,43.60
2022-10-20T21:00:29.101Z,43.70
2022-10-20T21:03:03.101Z,43.60
2022-10-20T21:05:39.184Z,43.60
2022-10-20T21:08:13.268Z,43.60
2022-10-20T21:10:48.966Z,43.90
2022-10-20T21:13:24.397Z,43.90
2022-10-20T21:16:08.955Z,43.80
2022-10-20T21:18:45.188Z,43.80
2022-10-20T21:21:21.355Z,43.80
2022-10-20T21:23:57.068Z,43.70
2022-10-20T21:26:32.046Z,43.70
2022-10-20T21:29:07.840Z,43.70
2022-10-20T21:31:42.103Z,43.70
2022-10-20T21:34:16.170Z,43.70
2022-10-20T21:36:50.215Z,43.70
2022-10-20T21:39:24.303Z,43.70
2022-10-20T21:41:58.304Z,43.70
2022-10-20T21:44:33.939Z,43.70
2022-10-20T21:47:07.917Z,43.80
2022-10-20T21:49:41.993Z,43.70
2022-10-20T21:52:16.005Z,43.60
2022-10-20T21:54:49.944Z,43.60
2022-10-20T21:57:23.888Z,43.60
2022-10-20T21:59:59.312Z,43.50
2022-10-20T22:02:33.295Z,43.50
2022-10-20T22:05:07.741Z,43.60
2022-10-20T22:07:41.717Z,43.50
2022-10-20T22:10:15.816Z,43.50
2022-10-20T22:12:49.735Z,43.50
2022-10-20T22:15:25.653Z,43.40
2022-10-20T22:17:59.597Z,43.60
2022-10-20T22:20:36.193Z,43.50
2022-10-20T22:23:10.151Z,43.50
2022-10-20T22:25:44.090Z,43.60
2022-10-20T22:28:18.022Z,43.60
2022-10-20T22:30:53.453Z,43.70
2022-10-20T22:33:27.709Z,43.70
2022-10-20T22:36:01.861Z,43.70
2022-10-20T22:38:35.768Z,43.70
2022-10-20T22:41:09.764Z,43.50
2022-10-20T22:43:43.589Z,43.50
2022-10-20T22:46:18.721Z,43.40
2022-10-20T22:48:52.817Z,43.60
2022-10-20T22:51:26.666Z,43.40
2022-10-20T22:54:00.338Z,43.30
2022-10-20T22:56:34.198Z,44.00
2022-10-20T22:59:08.042Z,43.20
2022-10-20T23:01:44.297Z,43.10
2022-10-20T23:04:18.145Z,43.40
2022-10-20T23:06:52.101Z,43.20
2022-10-20T23:09:26.087Z,43.10
2022-10-20T23:11:59.896Z,43.00
2022-10-20T23:14:33.418Z,43.10
2022-10-20T23:17:08.859Z,43.50
2022-10-20T23:19:42.681Z,43.40
2022-10-20T23:22:16.284Z,43.50
2022-10-20T23:24:50.090Z,43.60
2022-10-20T23:27:23.604Z,43.20
2022-10-20T23:29:57.435Z,43.40
2022-10-20T23:32:32.664Z,43.10
2022-10-20T23:35:07.405Z,42.90
2022-10-20T23:37:41.180Z,43.00
2022-10-20T23:40:14.666Z,42.90
2022-10-20T23:42:48.461Z,43.10
2022-10-20T23:45:22.010Z,43.00
2022-10-20T23:47:57.185Z,43.30
2022-10-20T23:50:31.253Z,43.00
2022-10-20T23:53:05.151Z,42.90
2022-10-20T23:55:38.940Z,42.80
2022-10-20T23:58:12.530Z,42.80
